createdAt,value
2019-04-25T00:01:52.426Z,11.03
2019-04-25T00:04:24.244Z,10.93
2019-04-25T00:06:55.830Z,11.73
2019-04-25T00:09:28.486Z,11.28
2019-04-25T00:12:00.199Z,10.63
2019-04-25T00:14:31.970Z,11.45
2019-04-25T00:17:03.749Z,10.98
2019-04-25T00:19:35.086Z,11.10
2019-04-25T00:22:15.263Z,11.05
2019-04-25T00:24:55.197Z,10.95
2019-04-25T00:27:27.164Z,12.43
2019-04-25T00:30:01.754Z,11.00
2019-04-25T00:32:34.815Z,11.43
2019-04-25T00:35:06.677Z,11.12
2019-04-25T00:37:39.204Z,11.55
2019-04-25T00:40:11.893Z,11.57
2019-04-25T00:42:44.898Z,11.43
2019-04-25T00:45:16.375Z,12.75
2019-04-25T00:47:48.134Z,11.73
2019-04-25T00:50:19.740Z,11.93
2019-04-25T00:52:53.333Z,11.80
2019-04-25T00:55:28.692Z,12.18
2019-04-25T00:58:05.557Z,12.15
2019-04-25T01:00:55.363Z,12.05
2019-04-25T01:03:28.857Z,11.30
2019-04-25T01:06:03.437Z,12.40
2019-04-25T01:08:34.416Z,11.20
2019-04-25T01:11:05.795Z,11.43
2019-04-25T01:13:37.499Z,12.50
2019-04-25T01:16:12.000Z,12.68
2019-04-25T01:18:45.320Z,12.03
2019-04-25T01:21:17.220Z,12.18
2019-04-25T01:23:49.359Z,11.25
2019-04-25T01:26:20.909Z,11.90
2019-04-25T01:28:54.068Z,12.23
2019-04-25T01:31:27.028Z,12.53
2019-04-25T01:33:58.535Z,12.18
2019-04-25T01:36:52.785Z,11.75
2019-04-25T01:39:34.171Z,11.95
2019-04-25T01:42:40.258Z,12.18
2019-04-25T01:45:14.082Z,12.35
2019-04-25T01:47:45.803Z,13.10
2019-04-25T01:50:17.229Z,13.13
2019-04-25T01:52:49.229Z,12.63
2019-04-25T01:55:23.375Z,12.75
2019-04-25T01:57:55.944Z,12.75
2019-04-25T02:00:33.915Z,13.28
2019-04-25T02:03:06.774Z,13.38
2019-04-25T02:05:38.478Z,12.70
2019-04-25T02:08:10.131Z,12.40
2019-04-25T02:10:44.015Z,12.30
2019-04-25T02:13:17.767Z,12.68
2019-04-25T02:15:49.229Z,13.58
2019-04-25T02:18:21.103Z,12.37
2019-04-25T02:20:54.885Z,12.82
2019-04-25T02:23:26.189Z,12.95
2019-04-25T02:26:09.714Z,13.35
2019-04-25T02:28:30.764Z,12.88
2019-04-25T02:31:08.190Z,12.88
2019-04-25T02:33:36.536Z,14.23
2019-04-25T02:36:08.889Z,13.38
2019-04-25T02:38:41.174Z,14.25
2019-04-25T02:41:14.765Z,13.05
2019-04-25T02:43:46.201Z,15.18
2019-04-25T02:46:48.761Z,13.88
2019-04-25T02:49:48.638Z,13.80
2019-04-25T02:52:44.202Z,14.47
2019-04-25T02:55:29.566Z,14.53
2019-04-25T02:57:49.028Z,14.13
2019-04-25T03:00:46.047Z,14.13
2019-04-25T03:03:03.378Z,16.55
2019-04-25T03:05:35.770Z,16.77
2019-04-25T03:08:10.317Z,15.70
2019-04-25T03:10:41.595Z,15.20
2019-04-25T03:13:14.817Z,15.40
2019-04-25T03:15:46.906Z,15.32
2019-04-25T03:18:19.879Z,14.78
2019-04-25T03:21:11.822Z,16.35
2019-04-25T03:23:46.090Z,14.83
2019-04-25T03:26:16.174Z,16.60
2019-04-25T03:28:47.676Z,15.25
2019-04-25T03:31:22.859Z,14.30
2019-04-25T03:33:55.550Z,15.13
2019-04-25T03:36:25.538Z,15.03
2019-04-25T03:38:57.010Z,15.30
2019-04-25T03:41:28.493Z,14.83
2019-04-25T03:44:00.144Z,14.70
2019-04-25T03:46:33.314Z,14.13
2019-04-25T03:49:06.079Z,14.98
2019-04-25T03:51:37.857Z,16.37
2019-04-25T03:54:10.560Z,14.73
2019-04-25T03:56:53.302Z,15.13
2019-04-25T03:59:17.093Z,15.63
2019-04-25T04:01:48.503Z,14.65
2019-04-25T04:04:21.171Z,15.35
2019-04-25T04:06:55.501Z,15.35
2019-04-25T04:09:27.020Z,14.47
2019-04-25T04:11:58.533Z,15.72
2019-04-25T04:14:30.509Z,16.48
2019-04-25T04:17:23.743Z,17.92
2019-04-25T04:20:14.688Z,15.10
2019-04-25T04:22:53.307Z,15.90
2019-04-25T04:25:25.483Z,15.50
2019-04-25T04:27:58.377Z,15.48
2019-04-25T04:30:30.161Z,15.60
2019-04-25T04:33:03.207Z,15.32
2019-04-25T04:35:35.277Z,17.32
2019-04-25T04:38:08.042Z,16.97
2019-04-25T04:40:39.757Z,20.95
2019-04-25T04:43:11.738Z,21.20
2019-04-25T04:45:45.637Z,21.87
2019-04-25T04:48:16.745Z,20.35
2019-04-25T04:50:48.501Z,22.77
2019-04-25T04:53:20.085Z,21.93
2019-04-25T04:55:51.399Z,20.00
2019-04-25T04:58:24.964Z,19.50
2019-04-25T05:00:56.487Z,19.32
2019-04-25T05:03:44.105Z,17.85
2019-04-25T05:06:24.018Z,18.20
2019-04-25T05:09:00.377Z,17.60
2019-04-25T05:11:33.551Z,16.37
2019-04-25T05:14:05.151Z,16.37
2019-04-25T05:16:36.819Z,14.58
2019-04-25T05:19:08.480Z,14.70
2019-04-25T05:21:39.856Z,13.98
2019-04-25T05:24:12.833Z,13.28
2019-04-25T05:26:44.445Z,11.90
2019-04-25T05:29:20.725Z,13.08
2019-04-25T05:31:51.382Z,11.73
2019-04-25T05:34:25.496Z,12.37
2019-04-25T05:36:56.129Z,12.65
2019-04-25T05:39:27.525Z,12.20
2019-04-25T05:42:07.799Z,10.70
2019-04-25T05:44:39.754Z,10.45
2019-04-25T05:47:11.142Z,10.70
2019-04-25T05:49:44.086Z,11.05
2019-04-25T05:52:16.068Z,10.38
2019-04-25T05:54:47.569Z,10.58
2019-04-25T05:57:18.905Z,9.83
2019-04-25T05:59:50.397Z,10.23
2019-04-25T06:02:22.166Z,9.65
2019-04-25T06:04:53.772Z,9.58
2019-04-25T06:07:26.754Z,9.73
2019-04-25T06:10:18.098Z,10.32
2019-04-25T06:59:28.870Z,8.30
2019-04-25T07:02:00.490Z,8.18
2019-04-25T07:04:33.677Z,7.92
2019-04-25T07:07:12.366Z,7.70
2019-04-25T07:09:38.545Z,8.70
2019-04-25T07:12:09.913Z,7.83
2019-04-25T07:14:43.860Z,8.40
2019-04-25T07:17:16.264Z,8.08
2019-04-25T07:19:48.883Z,8.00
2019-04-25T07:22:20.787Z,8.10
2019-04-25T07:24:53.718Z,7.80
2019-04-25T07:27:44.777Z,8.13
2019-04-25T07:30:48.348Z,7.83
2019-04-25T07:33:15.238Z,7.87
2019-04-25T07:35:46.644Z,7.58
2019-04-25T07:38:18.293Z,7.72
2019-04-25T07:40:49.902Z,7.37
2019-04-25T07:43:23.313Z,7.33
2019-04-25T07:45:54.794Z,7.47
2019-04-25T07:48:26.860Z,7.53
2019-04-25T07:50:58.546Z,7.08
2019-04-25T07:53:31.505Z,7.47
2019-04-25T07:56:04.244Z,6.87
2019-04-25T07:58:49.548Z,6.53
2019-04-25T08:01:18.202Z,6.72
2019-04-25T08:03:49.594Z,7.37
2019-04-25T08:06:22.637Z,7.30
2019-04-25T08:08:54.654Z,6.70
2019-04-25T08:11:28.109Z,6.28
2019-04-25T08:14:24.496Z,7.15
2019-04-25T08:16:57.940Z,6.80
2019-04-25T08:19:29.620Z,6.10
2019-04-25T08:22:03.651Z,6.12
2019-04-25T08:24:37.208Z,6.33
2019-04-25T08:27:09.014Z,6.55
2019-04-25T08:29:41.810Z,6.45
2019-04-25T08:32:14.230Z,6.90
2019-04-25T08:34:51.505Z,5.90
2019-04-25T08:37:24.102Z,6.08
2019-04-25T08:39:55.737Z,7.37
2019-04-25T08:42:27.166Z,6.42
2019-04-25T08:45:00.732Z,6.08
2019-04-25T08:47:37.359Z,6.03
2019-04-25T08:50:44.740Z,5.72
2019-04-25T08:53:16.514Z,5.97
2019-04-25T08:55:59.499Z,6.47
2019-04-25T08:59:03.634Z,6.12
2019-04-25T09:01:53.801Z,7.03
2019-04-25T09:04:38.079Z,6.33
2019-04-25T09:07:10.577Z,6.30
2019-04-25T09:09:43.968Z,6.20
2019-04-25T09:12:16.602Z,5.72
2019-04-25T09:14:48.420Z,5.70
2019-04-25T09:17:24.178Z,5.72
2019-04-25T09:20:01.895Z,5.78
2019-04-25T09:22:36.458Z,5.45
2019-04-25T09:25:09.455Z,5.90
2019-04-25T09:27:41.953Z,5.53
2019-04-25T09:30:16.187Z,5.30
2019-04-25T09:32:47.869Z,5.80
2019-04-25T09:35:20.611Z,6.15
2019-04-25T09:37:54.126Z,5.72
2019-04-25T09:40:25.759Z,5.55
2019-04-25T09:43:04.001Z,5.25
2019-04-25T09:45:51.096Z,5.55
2019-04-25T09:48:31.285Z,5.30
2019-04-25T09:51:13.840Z,4.97
2019-04-25T09:53:50.961Z,5.67
2019-04-25T09:56:30.368Z,5.37
2019-04-25T09:59:11.216Z,4.78
2019-04-25T10:01:44.922Z,5.33
2019-04-25T10:04:17.985Z,5.12
2019-04-25T10:06:53.520Z,5.53
2019-04-25T10:09:25.614Z,6.03
2019-04-25T10:11:57.522Z,4.78
2019-04-25T10:15:11.036Z,5.62
2019-04-25T10:17:43.912Z,5.10
2019-04-25T10:20:19.932Z,4.72
2019-04-25T10:22:54.345Z,5.47
2019-04-25T10:25:26.194Z,5.97
2019-04-25T10:27:57.863Z,5.72
2019-04-25T10:30:31.114Z,5.80
2019-04-25T10:33:04.086Z,5.67
2019-04-25T10:35:47.937Z,5.28
2019-04-25T10:38:10.260Z,5.90
2019-04-25T10:40:42.556Z,5.92
2019-04-25T10:43:15.620Z,5.50
2019-04-25T10:45:48.718Z,4.60
2019-04-25T10:48:20.440Z,5.55
2019-04-25T10:50:55.459Z,5.90
2019-04-25T10:53:25.207Z,5.28
2019-04-25T10:55:56.971Z,5.20
2019-04-25T10:58:28.654Z,6.42
2019-04-25T11:01:04.684Z,5.50
2019-04-25T11:03:47.022Z,6.22
2019-04-25T11:06:23.220Z,5.37
2019-04-25T11:08:56.492Z,5.85
2019-04-25T11:11:29.210Z,6.08
2019-04-25T11:14:01.105Z,5.58
2019-04-25T11:16:33.818Z,5.60
2019-04-25T11:19:05.897Z,5.87
2019-04-25T11:21:37.446Z,5.33
2019-04-25T11:24:08.858Z,5.42
2019-04-25T11:26:42.820Z,5.05
2019-04-25T11:29:15.287Z,5.35
2019-04-25T11:31:48.975Z,5.55
2019-04-25T11:34:20.800Z,5.47
2019-04-25T11:36:57.643Z,4.85
2019-04-25T11:39:58.873Z,4.92
2019-04-25T11:42:33.679Z,5.17
2019-04-25T11:45:07.894Z,4.60
2019-04-25T11:47:39.274Z,4.35
2019-04-25T11:50:11.150Z,5.25
2019-04-25T11:52:43.705Z,4.87
2019-04-25T11:55:16.595Z,4.50
2019-04-25T11:57:52.403Z,4.83
2019-04-25T12:00:27.927Z,4.83
2019-04-25T12:02:59.260Z,4.22
2019-04-25T12:05:34.193Z,4.55
2019-04-25T12:08:05.993Z,4.53
2019-04-25T12:10:37.518Z,5.55
2019-04-25T12:13:09.390Z,5.72
2019-04-25T12:15:41.121Z,4.72
2019-04-25T12:18:13.792Z,5.37
2019-04-25T12:20:46.563Z,4.37
2019-04-25T12:23:18.279Z,4.50
2019-04-25T12:25:49.884Z,5.67
2019-04-25T12:28:21.378Z,4.92
2019-04-25T12:30:54.945Z,4.72
2019-04-25T12:33:26.679Z,5.15
2019-04-25T12:35:58.393Z,4.65
2019-04-25T12:38:29.950Z,4.55
2019-04-25T12:41:01.569Z,5.20
2019-04-25T12:43:35.290Z,5.12
2019-04-25T12:46:15.177Z,5.67
2019-04-25T12:48:47.620Z,5.65
2019-04-25T12:51:19.120Z,5.80
2019-04-25T12:53:51.347Z,4.92
2019-04-25T12:56:24.557Z,5.90
2019-04-25T12:58:56.029Z,5.40
2019-04-25T13:01:28.138Z,5.25
2019-04-25T13:03:59.948Z,5.67
2019-04-25T13:06:33.854Z,5.47
2019-04-25T13:09:07.103Z,4.75
2019-04-25T13:11:43.353Z,5.08
2019-04-25T13:14:16.062Z,5.62
2019-04-25T13:16:48.077Z,6.03
2019-04-25T13:19:24.156Z,5.42
2019-04-25T13:21:54.431Z,6.53
2019-04-25T13:24:25.915Z,4.97
2019-04-25T13:27:03.640Z,4.22
2019-04-25T13:29:45.049Z,5.42
2019-04-25T13:32:34.143Z,5.10
2019-04-25T13:35:11.275Z,4.53
2019-04-25T13:37:43.996Z,4.55
2019-04-25T13:40:17.268Z,4.33
2019-04-25T13:42:49.607Z,4.78
2019-04-25T13:45:22.364Z,4.97
2019-04-25T13:47:53.913Z,4.47
2019-04-25T13:50:26.051Z,4.95
2019-04-25T13:52:57.891Z,4.60
2019-04-25T13:55:30.101Z,5.55
2019-04-25T13:58:04.192Z,4.08
2019-04-25T14:00:36.393Z,4.33
2019-04-25T14:03:08.207Z,4.42
2019-04-25T14:05:40.774Z,4.90
2019-04-25T14:08:13.144Z,4.42
2019-04-25T14:10:47.463Z,4.28
2019-04-25T14:13:19.017Z,5.15
2019-04-25T14:15:58.543Z,4.65
2019-04-25T14:18:55.680Z,4.62
2019-04-25T14:21:27.323Z,4.00
2019-04-25T14:23:59.242Z,5.35
2019-04-25T14:26:31.671Z,4.65
2019-04-25T14:29:04.235Z,4.45
2019-04-25T14:31:44.834Z,7.10
2019-04-25T14:34:09.855Z,4.35
2019-04-25T14:36:41.673Z,5.78
2019-04-25T14:39:13.989Z,5.60
2019-04-25T14:41:45.602Z,5.40
2019-04-25T14:44:17.240Z,5.20
2019-04-25T14:46:48.816Z,5.20
2019-04-25T14:49:30.542Z,5.03
2019-04-25T14:52:02.067Z,5.28
2019-04-25T14:54:39.799Z,4.87
2019-04-25T14:57:30.119Z,5.67
2019-04-25T15:00:04.632Z,4.62
2019-04-25T15:02:37.672Z,4.58
2019-04-25T15:05:09.423Z,4.75
2019-04-25T15:07:41.660Z,4.85
2019-04-25T15:10:14.077Z,5.12
2019-04-25T15:12:45.501Z,4.53
2019-04-25T15:15:17.097Z,4.20
2019-04-25T15:17:48.461Z,5.58
2019-04-25T15:20:20.325Z,5.35
2019-04-25T15:22:52.404Z,4.80
2019-04-25T15:25:23.778Z,4.78
2019-04-25T15:27:55.099Z,6.10
2019-04-25T15:30:29.548Z,5.62
2019-04-25T15:33:01.491Z,5.58
2019-04-25T15:35:50.540Z,5.22
2019-04-25T15:38:35.595Z,5.53
2019-04-25T15:41:13.407Z,5.15
2019-04-25T15:44:19.401Z,4.85
2019-04-25T15:46:52.200Z,5.10
2019-04-25T15:49:24.518Z,5.62
2019-04-25T15:51:57.902Z,4.50
2019-04-25T15:54:29.700Z,5.12
2019-04-25T15:57:01.320Z,5.85
2019-04-25T15:59:33.103Z,6.08
2019-04-25T16:02:08.252Z,5.67
2019-04-25T16:04:40.266Z,7.28
2019-04-25T16:07:12.386Z,5.60
2019-04-25T16:09:43.729Z,5.67
2019-04-25T16:12:15.623Z,6.22
2019-04-25T16:14:46.942Z,6.10
2019-04-25T16:17:18.518Z,5.80
2019-04-25T16:19:50.015Z,6.20
2019-04-25T16:22:21.798Z,6.37
2019-04-25T16:24:53.296Z,5.22
2019-04-25T16:27:24.798Z,5.22
2019-04-25T16:29:56.381Z,5.20
2019-04-25T16:32:28.159Z,7.17
2019-04-25T16:35:00.569Z,6.62
2019-04-25T16:37:32.425Z,7.22
2019-04-25T16:40:09.066Z,7.45
2019-04-25T16:42:41.750Z,7.17
2019-04-25T16:45:13.671Z,6.87
2019-04-25T16:47:45.614Z,6.92
2019-04-25T16:50:18.336Z,7.35
2019-04-25T16:52:50.201Z,6.90
2019-04-25T16:55:21.875Z,6.15
2019-04-25T16:57:53.852Z,6.62
2019-04-25T17:00:42.784Z,5.53
2019-04-25T17:03:16.005Z,6.40
2019-04-25T17:05:48.022Z,5.87
2019-04-25T17:08:19.974Z,6.10
2019-04-25T17:10:53.721Z,6.10
2019-04-25T17:13:27.522Z,6.58
2019-04-25T17:16:34.773Z,5.92
2019-04-25T17:19:09.918Z,5.60
2019-04-25T17:21:41.622Z,5.85
2019-04-25T17:24:13.753Z,5.50
2019-04-25T17:26:45.565Z,5.40
2019-04-25T17:29:20.351Z,6.12
2019-04-25T17:32:01.177Z,5.70
2019-04-25T17:34:49.947Z,6.55
2019-04-25T17:37:34.400Z,5.50
2019-04-25T17:40:19.888Z,6.08
2019-04-25T17:42:51.261Z,5.12
2019-04-25T17:45:27.228Z,5.37
2019-04-25T17:47:58.821Z,5.35
2019-04-25T17:50:30.441Z,6.35
2019-04-25T17:53:02.465Z,6.67
2019-04-25T17:55:34.966Z,6.90
2019-04-25T17:58:06.316Z,6.25
2019-04-25T18:00:44.976Z,7.10
2019-04-25T18:03:16.810Z,6.30
2019-04-25T18:05:49.253Z,7.12
2019-04-25T18:08:20.754Z,6.47
2019-04-25T18:10:54.022Z,6.85
2019-04-25T18:13:25.674Z,6.45
2019-04-25T18:16:10.438Z,6.10
2019-04-25T18:18:57.483Z,7.20
2019-04-25T18:21:28.822Z,6.42
2019-04-25T18:24:15.809Z,6.53
2019-04-25T18:27:12.842Z,6.33
2019-04-25T18:29:46.346Z,7.35
2019-04-25T18:32:18.095Z,6.60
2019-04-25T18:35:03.059Z,6.85
2019-04-25T18:37:59.300Z,6.75
2019-04-25T18:40:49.808Z,6.47
2019-04-25T18:43:26.543Z,6.08
2019-04-25T18:46:02.571Z,6.60
2019-04-25T18:48:34.300Z,6.58
2019-04-25T18:51:06.310Z,7.00
2019-04-25T18:53:55.849Z,6.53
2019-04-25T18:56:37.777Z,6.85
2019-04-25T18:59:26.831Z,7.15
2019-04-25T19:02:23.176Z,6.97
2019-04-25T19:05:03.078Z,6.67
2019-04-25T19:07:36.458Z,7.05
2019-04-25T19:10:09.353Z,7.00
2019-04-25T19:12:41.250Z,7.42
2019-04-25T19:15:12.714Z,8.03
2019-04-25T19:17:45.266Z,7.17
2019-04-25T19:20:17.132Z,7.22
2019-04-25T19:22:48.512Z,8.03
2019-04-25T19:25:21.238Z,7.10
2019-04-25T19:28:03.613Z,8.63
2019-04-25T19:30:38.683Z,8.70
2019-04-25T19:33:11.156Z,8.63
2019-04-25T19:35:45.691Z,8.20
2019-04-25T19:38:17.242Z,8.53
2019-04-25T19:40:53.340Z,8.90
2019-04-25T19:43:31.961Z,7.97
2019-04-25T19:46:03.691Z,8.30
2019-04-25T19:48:36.144Z,8.60
2019-04-25T19:51:07.727Z,9.58
2019-04-25T19:53:43.067Z,9.45
2019-04-25T19:56:14.717Z,8.70
2019-04-25T19:58:46.518Z,9.18
2019-04-25T20:01:17.955Z,9.68
2019-04-25T20:04:08.662Z,8.98
2019-04-25T20:06:57.988Z,8.88
2019-04-25T20:09:47.037Z,10.25
2019-04-25T20:12:19.111Z,9.85
2019-04-25T20:14:51.344Z,9.45
2019-04-25T20:17:22.837Z,9.73
2019-04-25T20:19:54.642Z,10.03
2019-04-25T20:22:26.317Z,9.60
2019-04-25T20:24:57.821Z,9.98
2019-04-25T20:27:29.488Z,10.65
2019-04-25T20:30:01.214Z,10.32
2019-04-25T20:32:34.800Z,9.85
2019-04-25T20:35:06.577Z,10.72
2019-04-25T20:37:38.439Z,10.28
2019-04-25T20:40:10.014Z,10.72
2019-04-25T20:42:41.986Z,10.70
2019-04-25T20:45:14.319Z,11.55
2019-04-25T20:47:47.857Z,10.95
2019-04-25T20:50:19.429Z,10.45
2019-04-25T20:52:50.881Z,11.63
2019-04-25T20:55:23.770Z,11.50
2019-04-25T20:57:55.554Z,11.53
2019-04-25T21:00:55.907Z,11.90
2019-04-25T21:03:27.414Z,11.97
2019-04-25T21:06:06.658Z,12.18
2019-04-25T21:08:38.894Z,12.68
2019-04-25T21:11:10.303Z,13.40
2019-04-25T21:14:01.278Z,12.07
2019-04-25T21:16:52.147Z,11.73
2019-04-25T21:19:29.009Z,13.30
2019-04-25T21:22:01.101Z,13.00
2019-04-25T21:24:33.189Z,12.03
2019-04-25T21:27:07.841Z,12.55
2019-04-25T21:29:38.995Z,12.88
2019-04-25T21:32:10.518Z,13.08
2019-04-25T21:34:42.246Z,12.95
2019-04-25T21:37:14.819Z,13.08
2019-04-25T21:40:09.286Z,14.33
2019-04-25T21:42:45.365Z,12.00
2019-04-25T21:45:17.580Z,13.13
2019-04-25T21:47:49.556Z,14.30
2019-04-25T21:50:21.380Z,12.95
2019-04-25T21:52:54.425Z,14.00
2019-04-25T21:55:27.096Z,13.75
2019-04-25T21:58:00.254Z,13.83
2019-04-25T22:00:58.064Z,13.65
2019-04-25T22:03:32.772Z,13.08
2019-04-25T22:06:05.126Z,13.48
2019-04-25T22:08:36.964Z,13.10
2019-04-25T22:11:08.945Z,12.98
2019-04-25T22:13:40.786Z,13.48
2019-04-25T22:16:12.532Z,14.65
2019-04-25T22:18:44.450Z,14.33
2019-04-25T22:21:16.477Z,14.47
2019-04-25T22:23:48.151Z,14.33
2019-04-25T22:26:19.839Z,13.80
2019-04-25T22:28:53.284Z,14.80
2019-04-25T22:31:29.922Z,14.98
2019-04-25T22:34:08.561Z,14.20
2019-04-25T22:36:40.590Z,14.70
2019-04-25T22:39:12.905Z,15.68
2019-04-25T22:41:46.847Z,13.98
2019-04-25T22:44:20.885Z,14.98
2019-04-25T22:46:53.413Z,15.23
2019-04-25T22:49:25.012Z,15.63
2019-04-25T22:51:56.653Z,15.13
2019-04-25T22:54:29.649Z,15.88
2019-04-25T22:57:01.803Z,15.45
2019-04-25T22:59:35.862Z,14.53
2019-04-25T23:02:32.502Z,15.55
2019-04-25T23:05:22.132Z,15.20
2019-04-25T23:07:53.862Z,15.80
2019-04-25T23:10:26.115Z,15.70
2019-04-25T23:12:58.802Z,14.98
2019-04-25T23:15:30.205Z,16.17
2019-04-25T23:18:02.895Z,15.28
2019-04-25T23:20:35.343Z,16.10
2019-04-25T23:23:07.697Z,14.28
2019-04-25T23:26:14.120Z,14.23
2019-04-25T23:28:46.873Z,16.45
2019-04-25T23:31:25.488Z,15.83
2019-04-25T23:33:57.662Z,15.18
2019-04-25T23:36:36.314Z,15.28
2019-04-25T23:39:09.439Z,16.07
2019-04-25T23:41:41.514Z,15.08
2019-04-25T23:44:13.195Z,14.80
2019-04-25T23:46:46.161Z,16.07
2019-04-25T23:49:18.153Z,15.40
2019-04-25T23:51:49.938Z,15.60
2019-04-25T23:54:21.310Z,15.15
2019-04-25T23:56:52.713Z,15.23
2019-04-25T23:59:24.081Z,16.10
